Wetterdaten: Freitag, 24.06.2022
Datum Zeit Außen Temp. Server Temp. +20m Feuchte Feuchte +20m Luftdruck Regen Wind Richtung Richtung Sonnenschein Helligkeit Solar Taupunkt
24.06.2022 00:00 24,7 °C 30,5 °C 25,9 °C 34 % 15 % 1008,4 hPa 0,00 l/m² 28,6 km/h (4 Bft) O±45° 90 ° 0 min 0 lux 0 W/m² 7,8 °C
24.06.2022 00:15 24,9 °C 30,4 °C 25,8 °C 34 % 15 % 1008,4 hPa 0,00 l/m² 25,8 km/h (4 Bft) O±67.5° 95 ° 0 min 0 lux 0 W/m² 7,9 °C
24.06.2022 00:30 24,9 °C 30,4 °C 25,8 °C 33 % 15 % 1008,4 hPa 0,00 l/m² 33,1 km/h (5 Bft) O±67.5° 95 ° 0 min 0 lux 0 W/m² 7,5 °C
24.06.2022 00:45 25,1 °C 30,3 °C 26,0 °C 32 % 15 % 1008,4 hPa 0,00 l/m² 39,8 km/h (6 Bft) O±45° 100 ° 0 min 0 lux 0 W/m² 7,2 °C
24.06.2022 01:00 25,2 °C 30,2 °C 26,0 °C 32 % 15 % 1008,4 hPa 0,00 l/m² 35,5 km/h (5 Bft) O±45° 90 ° 0 min 0 lux 0 W/m² 7,3 °C
24.06.2022 01:15 25,1 °C 30,1 °C 26,2 °C 32 % 15 % 1008,4 hPa 0,00 l/m² 36,9 km/h (5 Bft) O±45° 100 ° 0 min 0 lux 0 W/m² 7,2 °C
24.06.2022 01:30 25,1 °C 30,0 °C 25,7 °C 33 % 15 % 1007,4 hPa 0,00 l/m² 35,1 km/h (5 Bft) O±67.5° 90 ° 0 min 0 lux 0 W/m² 7,7 °C
24.06.2022 01:45 24,9 °C 29,9 °C 25,7 °C 33 % 15 % 1007,4 hPa 0,00 l/m² 35,1 km/h (5 Bft) O-SO±45° 105 ° 0 min 0 lux 0 W/m² 7,5 °C
24.06.2022 02:00 24,8 °C 29,9 °C 25,2 °C 34 % 15 % 1007,4 hPa 0,00 l/m² 32,9 km/h (5 Bft) O-SO±22.5 115 ° 0 min 0 lux 0 W/m² 7,9 °C
24.06.2022 02:15 24,6 °C 29,7 °C 25,1 °C 34 % 15 % 1007,4 hPa 0,00 l/m² 23,5 km/h (4 Bft) O-SO±22.5 120 ° 0 min 0 lux 0 W/m² 7,7 °C
24.06.2022 02:30 24,5 °C 29,6 °C 25,1 °C 34 % 15 % 1007,4 hPa 0,00 l/m² 29,8 km/h (5 Bft) O-SO±22.5 110 ° 0 min 0 lux 0 W/m² 7,6 °C
24.06.2022 02:45 24,4 °C 29,5 °C 25,1 °C 34 % 15 % 1007,4 hPa 0,00 l/m² 30,2 km/h (5 Bft) O-SO±45° 115 ° 0 min 0 lux 0 W/m² 7,5 °C
24.06.2022 02:59 24,5 °C 29,5 °C 25,1 °C 34 % 15 % 1007,4 hPa 0,00 l/m² 34,1 km/h (5 Bft) SO±22.5° 125 ° 0 min 0 lux 0 W/m² 7,6 °C
24.06.2022 03:15 24,3 °C 29,4 °C 24,8 °C 35 % 15 % 1007,5 hPa 0,00 l/m² 21,2 km/h (4 Bft) SO±67.5° 125 ° 0 min 0 lux 0 W/m² 7,8 °C
24.06.2022 03:30 24,1 °C 29,3 °C 24,8 °C 37 % 15 % 1007,5 hPa 0,00 l/m² 32,4 km/h (5 Bft) O-SO±22.5 115 ° 0 min 0 lux 0 W/m² 8,5 °C
24.06.2022 03:45 24,1 °C 29,3 °C 24,5 °C 37 % 15 % 1007,5 hPa 0,00 l/m² 27,4 km/h (4 Bft) O-SO±45° 105 ° 0 min 0 lux 0 W/m² 8,5 °C
24.06.2022 04:00 23,9 °C 29,3 °C 24,5 °C 38 % 15 % 1007,5 hPa 0,00 l/m² 27,3 km/h (4 Bft) O-SO±22.5 110 ° 0 min 0 lux 0 W/m² 8,7 °C
24.06.2022 04:15 23,7 °C 29,2 °C 24,2 °C 38 % 15 % 1007,5 hPa 0,00 l/m² 22,8 km/h (4 Bft) O-SO±22.5 110 ° 0 min 0 lux 0 W/m² 8,5 °C
24.06.2022 04:30 23,6 °C 29,2 °C 24,2 °C 39 % 15 % 1007,5 hPa 0,00 l/m² 21,3 km/h (4 Bft) O-SO±22.5 115 ° 0 min 0 lux 0 W/m² 8,8 °C
24.06.2022 04:45 23,5 °C 29,2 °C 23,9 °C 40 % 15 % 1007,5 hPa 0,00 l/m² 19,9 km/h (4 Bft) O-SO±45° 115 ° 0 min 128 lux 0 W/m² 9,1 °C
24.06.2022 05:00 23,3 °C 29,1 °C 23,9 °C 41 % 15 % 1006,5 hPa 0,00 l/m² 17,5 km/h (3 Bft) O-SO±22.5 105 ° 0 min 387 lux 0 W/m² 9,3 °C
24.06.2022 05:15 23,3 °C 29,1 °C 24,0 °C 41 % 15 % 1006,5 hPa 0,00 l/m² 18,5 km/h (3 Bft) O-SO±22.5 105 ° 0 min 1,09 klux 7 W/m² 9,3 °C
24.06.2022 05:30 23,2 °C 29,1 °C 23,9 °C 42 % 15 % 1006,5 hPa 0,00 l/m² 19,2 km/h (3 Bft) O-SO±22.5 110 ° 0 min 2,25 klux 15 W/m² 9,6 °C
24.06.2022 05:45 23,0 °C 29,1 °C 25,0 °C 43 % 15 % 1006,5 hPa 0,00 l/m² 14,6 km/h (3 Bft) O-SO±22.5 115 ° 0 min 5,10 klux 33 W/m² 9,7 °C
24.06.2022 06:00 22,9 °C 29,1 °C 26,7 °C 44 % 15 % 1006,6 hPa 0,00 l/m² 15,9 km/h (3 Bft) O-SO±22.5 105 ° 0 min 8,35 klux 54 W/m² 10,0 °C
24.06.2022 06:15 22,9 °C 29,2 °C 28,2 °C 45 % 15 % 1006,6 hPa 0,00 l/m² 8,9 km/h (2 Bft) S±45° 190 ° 0 min 11,1 klux 72 W/m² 10,3 °C
24.06.2022 06:30 22,5 °C 29,2 °C 27,3 °C 47 % 15 % 1006,6 hPa 0,00 l/m² 12,5 km/h (3 Bft) S±22.5° 170 ° 0 min 14,3 klux 93 W/m² 10,6 °C
24.06.2022 06:45 22,3 °C 29,2 °C 27,5 °C 47 % 15 % 1006,6 hPa 0,00 l/m² 18,6 km/h (3 Bft) SO±45° 125 ° 0 min 15,6 klux 102 W/m² 10,4 °C
24.06.2022 07:00 22,9 °C 29,2 °C 27,5 °C 46 % 15 % 1006,6 hPa 0,00 l/m² 16,6 km/h (3 Bft) SO±45° 145 ° 0 min 15,0 klux 98 W/m² 10,7 °C
24.06.2022 07:15 24,7 °C 29,2 °C 28,2 °C 43 % 15 % 1006,4 hPa 0,00 l/m² 16,6 km/h (3 Bft) S-SO±45° 150 ° 0 min 10,5 klux 68 W/m² 11,3 °C
24.06.2022 07:30 26,8 °C 29,3 °C 28,3 °C 40 % 15 % 1007,2 hPa 0,00 l/m² 20,5 km/h (4 Bft) SO±67.5° 145 ° 0 min 11,5 klux 75 W/m² 12,1 °C
24.06.2022 07:45 26,6 °C 29,3 °C 28,2 °C 41 % 15 % 1006,2 hPa 0,00 l/m² 16,0 km/h (3 Bft) S-SO±67.5 150 ° 0 min 12,0 klux 78 W/m² 12,2 °C
24.06.2022 08:00 27,3 °C 29,4 °C 29,0 °C 41 % 15 % 1006,1 hPa 0,00 l/m² 15,6 km/h (3 Bft) S±67.5° 170 ° 0 min 22,0 klux 143 W/m² 12,9 °C
24.06.2022 08:15 27,1 °C 29,5 °C 28,5 °C 42 % 15 % 1006,2 hPa 0,00 l/m² 19,9 km/h (4 Bft) S±22.5° 170 ° 15 min 38,2 klux 249 W/m² 13,1 °C
24.06.2022 08:30 28,1 °C 29,7 °C 29,8 °C 42 % 15 % 1006,1 hPa 0,00 l/m² 14,5 km/h (3 Bft) S-SO±45° 155 ° 15 min 42,4 klux 276 W/m² 14,0 °C
24.06.2022 08:45 28,3 °C 29,9 °C 28,1 °C 40 % 15 % 1006,0 hPa 0,00 l/m² 15,1 km/h (3 Bft) S±45° 170 ° 15 min 58,6 klux 382 W/m² 13,4 °C
24.06.2022 09:00 28,8 °C 30,0 °C 25,9 °C 40 % 15 % 1006,0 hPa 0,00 l/m² 12,1 km/h (2 Bft) S±45° 180 ° 15 min 49,6 klux 323 W/m² 13,8 °C
24.06.2022 09:15 29,3 °C 30,3 °C 25,7 °C 40 % 15 % 1005,9 hPa 0,00 l/m² 12,8 km/h (3 Bft) S-SW±22.5 195 ° 15 min 53,2 klux 347 W/m² 14,3 °C
24.06.2022 09:30 29,3 °C 30,4 °C 26,7 °C 40 % 15 % 1005,9 hPa 0,00 l/m² 13,3 km/h (3 Bft) S-SW±67.5 205 ° 15 min 65,3 klux 425 W/m² 14,3 °C
24.06.2022 09:45 26,9 °C 30,6 °C 27,7 °C 46 % 15 % 1006,2 hPa 0,00 l/m² 11,9 km/h (2 Bft) S±45° 180 ° 15 min 69,3 klux 451 W/m² 14,3 °C
24.06.2022 10:00 26,2 °C 30,8 °C 28,1 °C 48 % 15 % 1006,2 hPa 0,00 l/m² 12,8 km/h (3 Bft) S-SO±45° 160 ° 15 min 65,6 klux 427 W/m² 14,3 °C
24.06.2022 10:15 26,2 °C 30,9 °C 28,0 °C 50 % 15 % 1006,2 hPa 0,00 l/m² 15,0 km/h (3 Bft) SW±45° 220 ° 15 min 85,0 klux 554 W/m² 14,9 °C
24.06.2022 10:30 25,2 °C 30,9 °C 25,6 °C 53 % 15 % 1006,3 hPa 0,00 l/m² 16,9 km/h (3 Bft) S-SW±22.5 205 ° 0 min 30,1 klux 196 W/m² 14,9 °C
24.06.2022 10:45 25,0 °C 30,9 °C 26,3 °C 55 % 15 % 1006,4 hPa 0,00 l/m² 15,5 km/h (3 Bft) S±45° 180 ° 0 min 29,7 klux 193 W/m² 15,3 °C
24.06.2022 11:00 26,0 °C 30,8 °C 26,9 °C 53 % 15 % 1006,3 hPa 0,00 l/m² 12,8 km/h (3 Bft) S-SW±45° 210 ° 0 min 38,9 klux 253 W/m² 15,7 °C
24.06.2022 11:15 24,7 °C 30,8 °C 25,1 °C 57 % 19 % 1006,4 hPa 0,00 l/m² 19,1 km/h (3 Bft) S-SW±45° 205 ° 0 min 24,6 klux 160 W/m² 15,6 °C
24.06.2022 11:30 23,3 °C 30,7 °C 23,7 °C 63 % 24 % 1006,5 hPa 0,00 l/m² 18,4 km/h (3 Bft) S-SW±45° 205 ° 0 min 17,1 klux 111 W/m² 15,9 °C
24.06.2022 11:45 22,1 °C 30,5 °C 23,0 °C 67 % 28 % 1006,6 hPa 0,00 l/m² 14,3 km/h (3 Bft) S-SO±45° 150 ° 0 min 14,8 klux 96 W/m² 15,7 °C
24.06.2022 12:00 21,9 °C 30,3 °C 22,8 °C 69 % 30 % 1006,7 hPa 0,00 l/m² 16,0 km/h (3 Bft) SO±45° 135 ° 0 min 14,3 klux 93 W/m² 15,9 °C
24.06.2022 12:15 22,3 °C 30,2 °C 23,4 °C 68 % 28 % 1006,6 hPa 0,00 l/m² 18,1 km/h (3 Bft) SO±45° 130 ° 0 min 29,1 klux 190 W/m² 16,1 °C
24.06.2022 12:30 22,9 °C 30,1 °C 24,3 °C 66 % 25 % 1006,6 hPa 0,00 l/m² 17,3 km/h (3 Bft) S-SO±22.5 150 ° 0 min 39,2 klux 255 W/m² 16,2 °C
24.06.2022 12:45 23,9 °C 30,1 °C 24,9 °C 63 % 24 % 1006,5 hPa 0,00 l/m² 16,1 km/h (3 Bft) S±22.5° 190 ° 0 min 43,7 klux 285 W/m² 16,4 °C
24.06.2022 13:00 24,3 °C 30,1 °C 26,3 °C 61 % 21 % 1006,4 hPa 0,00 l/m² 20,6 km/h (4 Bft) S-SO±45° 155 ° 0 min 45,7 klux 298 W/m² 16,3 °C
24.06.2022 13:15 24,8 °C 30,1 °C 26,0 °C 60 % 21 % 1006,4 hPa 0,00 l/m² 18,6 km/h (3 Bft) S-SW±45° 195 ° 0 min 54,7 klux 356 W/m² 16,5 °C
24.06.2022 13:30 25,2 °C 30,2 °C 26,4 °C 58 % 19 % 1006,3 hPa 0,00 l/m² 15,0 km/h (3 Bft) S±67.5° 185 ° 0 min 59,4 klux 387 W/m² 16,3 °C
24.06.2022 13:45 25,0 °C 30,3 °C 26,9 °C 58 % 18 % 1006,4 hPa 0,00 l/m² 13,9 km/h (3 Bft) S-SO±45° 160 ° 0 min 48,6 klux 317 W/m² 16,1 °C
24.06.2022 14:00 25,4 °C 30,3 °C 27,2 °C 57 % 15 % 1006,3 hPa 0,00 l/m² 18,5 km/h (3 Bft) S-SW±45° 200 ° 0 min 71,6 klux 466 W/m² 16,2 °C
24.06.2022 14:15 25,7 °C 30,3 °C 27,7 °C 53 % 15 % 1005,3 hPa 0,00 l/m² 16,3 km/h (3 Bft) S-SW±45° 205 ° 15 min 108 klux 704 W/m² 15,4 °C
24.06.2022 14:30 26,3 °C 30,4 °C 29,0 °C 53 % 15 % 1005,2 hPa 0,00 l/m² 16,0 km/h (3 Bft) S±45° 185 ° 15 min 108 klux 704 W/m² 15,9 °C
24.06.2022 14:45 26,1 °C 30,6 °C 28,5 °C 52 % 15 % 1005,2 hPa 0,00 l/m² 15,6 km/h (3 Bft) S-SO±67.5 150 ° 15 min 97,5 klux 635 W/m² 15,5 °C
24.06.2022 15:00 26,5 °C 30,6 °C 28,6 °C 52 % 15 % 1005,2 hPa 0,00 l/m² 19,9 km/h (4 Bft) S-SO±45° 160 ° 15 min 75,3 klux 491 W/m² 15,8 °C
24.06.2022 15:15 26,3 °C 30,7 °C 27,4 °C 51 % 15 % 1005,2 hPa 0,00 l/m² 14,6 km/h (3 Bft) S±45° 180 ° 0 min 33,2 klux 216 W/m² 15,3 °C
24.06.2022 15:30 26,1 °C 30,8 °C 27,9 °C 52 % 15 % 1005,2 hPa 0,00 l/m² 13,9 km/h (3 Bft) S-SO±45° 165 ° 0 min 33,0 klux 215 W/m² 15,5 °C
24.06.2022 15:45 26,2 °C 30,8 °C 27,6 °C 52 % 15 % 1005,2 hPa 0,00 l/m² 14,5 km/h (3 Bft) S-SW±45° 195 ° 0 min 35,3 klux 230 W/m² 15,6 °C
24.06.2022 16:00 26,0 °C 30,8 °C 27,2 °C 52 % 15 % 1005,2 hPa 0,00 l/m² 14,5 km/h (3 Bft) S-SW±22.5 205 ° 0 min 42,3 klux 276 W/m² 15,4 °C
24.06.2022 16:15 26,5 °C 30,9 °C 28,2 °C 50 % 15 % 1005,2 hPa 0,00 l/m² 16,6 km/h (3 Bft) S±67.5° 180 ° 0 min 45,2 klux 294 W/m² 15,2 °C
24.06.2022 16:30 26,7 °C 30,9 °C 28,5 °C 49 % 15 % 1005,2 hPa 0,00 l/m² 15,2 km/h (3 Bft) S±45° 190 ° 0 min 56,2 klux 366 W/m² 15,1 °C
24.06.2022 16:45 26,6 °C 31,0 °C 27,5 °C 52 % 15 % 1005,2 hPa 0,00 l/m² 17,9 km/h (3 Bft) NW±67.5° 320 ° 15 min 89,0 klux 580 W/m² 15,9 °C
24.06.2022 17:00 27,1 °C 31,0 °C 28,4 °C 49 % 15 % 1005,1 hPa 0,00 l/m² 15,8 km/h (3 Bft) W-NW±67.5 290 ° 15 min 82,1 klux 535 W/m² 15,4 °C
24.06.2022 17:15 27,2 °C 31,1 °C 29,0 °C 47 % 15 % 1005,1 hPa 0,00 l/m² 14,7 km/h (3 Bft) W-NW±45° 295 ° 15 min 81,4 klux 530 W/m² 14,9 °C
24.06.2022 17:30 27,2 °C 31,2 °C 26,9 °C 47 % 15 % 1004,1 hPa 0,00 l/m² 11,6 km/h (2 Bft) N-NW±67.5 330 ° 15 min 73,6 klux 479 W/m² 14,9 °C
24.06.2022 17:45 27,1 °C 31,3 °C 27,7 °C 51 % 15 % 1005,1 hPa 0,00 l/m² 24,7 km/h (4 Bft) NW±67.5° 305 ° 15 min 76,0 klux 495 W/m² 16,1 °C
24.06.2022 18:00 26,1 °C 31,4 °C 27,3 °C 54 % 15 % 1005,2 hPa 0,00 l/m² 22,0 km/h (4 Bft) W-NW±22.5 300 ° 15 min 63,3 klux 412 W/m² 16,0 °C
24.06.2022 18:15 25,5 °C 31,4 °C 27,5 °C 54 % 15 % 1005,3 hPa 0,00 l/m² 13,1 km/h (3 Bft) W-SW±22.5 255 ° 0 min 33,6 klux 219 W/m² 15,5 °C
24.06.2022 18:30 25,5 °C 31,4 °C 27,3 °C 54 % 15 % 1005,3 hPa 0,00 l/m² 10,0 km/h (2 Bft) W-SW±45° 255 ° 0 min 14,1 klux 92 W/m² 15,5 °C
24.06.2022 18:45 24,9 °C 31,3 °C 26,1 °C 57 % 15 % 1005,3 hPa 0,00 l/m² 7,6 km/h (2 Bft) SW±45° 215 ° 0 min 8,54 klux 56 W/m² 15,8 °C
24.06.2022 19:00 24,5 °C 31,2 °C 25,4 °C 58 % 18 % 1005,4 hPa 0,00 l/m² 13,6 km/h (3 Bft) W-SW±45° 240 ° 0 min 14,5 klux 94 W/m² 15,7 °C
24.06.2022 19:15 24,6 °C 31,2 °C 26,0 °C 58 % 15 % 1005,4 hPa 0,00 l/m² 16,0 km/h (3 Bft) SW±45° 225 ° 15 min 28,2 klux 184 W/m² 15,8 °C
24.06.2022 19:30 24,1 °C 31,0 °C 25,0 °C 60 % 19 % 1005,4 hPa 0,00 l/m² 18,5 km/h (3 Bft) W±67.5° 265 ° 0 min 9,9 klux 65 W/m² 15,8 °C
24.06.2022 19:45 23,9 °C 31,0 °C 24,8 °C 60 % 20 % 1005,4 hPa 0,00 l/m² 12,9 km/h (3 Bft) W±45° 275 ° 0 min 8,14 klux 53 W/m² 15,7 °C
24.06.2022 19:59 23,7 °C 30,9 °C 24,6 °C 60 % 20 % 1006,5 hPa 0,00 l/m² 6,5 km/h (2 Bft) W-NW±45° 295 ° 0 min 8,49 klux 55 W/m² 15,5 °C
24.06.2022 20:15 23,7 °C 30,8 °C 24,5 °C 60 % 19 % 1006,5 hPa 0,00 l/m² 8,9 km/h (2 Bft) W±45° 270 ° 0 min 8,73 klux 57 W/m² 15,5 °C
24.06.2022 20:30 23,3 °C 30,7 °C 23,9 °C 60 % 22 % 1006,5 hPa 0,00 l/m² 11,8 km/h (2 Bft) W-NW±45° 290 ° 0 min 5,84 klux 38 W/m² 15,1 °C
24.06.2022 20:45 23,1 °C 30,6 °C 23,7 °C 61 % 23 % 1006,5 hPa 0,00 l/m² 7,9 km/h (2 Bft) NW±45° 315 ° 0 min 5,28 klux 34 W/m² 15,2 °C
24.06.2022 21:00 22,7 °C 30,5 °C 25,4 °C 64 % 20 % 1006,6 hPa 0,00 l/m² 13,5 km/h (3 Bft) NW±45° 315 ° 15 min 8,83 klux 58 W/m² 15,5 °C
24.06.2022 21:15 22,3 °C 30,4 °C 23,7 °C 65 % 23 % 1006,6 hPa 0,00 l/m² 12,3 km/h (3 Bft) W-NW±67.5 295 ° 15 min 4,50 klux 29 W/m² 15,4 °C
24.06.2022 21:30 22,1 °C 30,3 °C 23,0 °C 65 % 26 % 1006,6 hPa 0,00 l/m² 9,2 km/h (2 Bft) W±22.5° 270 ° 0 min 1,82 klux 12 W/m² 15,2 °C
24.06.2022 21:45 21,7 °C 30,2 °C 22,1 °C 67 % 28 % 1006,7 hPa 0,00 l/m² 13,6 km/h (3 Bft) NW±45° 315 ° 0 min 750 lux 0 W/m² 15,3 °C
24.06.2022 22:00 21,3 °C 30,1 °C 21,5 °C 68 % 30 % 1007,7 hPa 0,00 l/m² 3,7 km/h (1 Bft) W-SW 250 ° 0 min 228 lux 0 W/m² 15,1 °C
24.06.2022 22:15 21,0 °C 30,0 °C 21,1 °C 69 % 32 % 1007,8 hPa 0,00 l/m² 0,6 km/h (0 Bft) W±22.5° 270 ° 0 min 50 lux 0 W/m² 15,1 °C
24.06.2022 22:30 20,7 °C 30,0 °C 20,7 °C 69 % 33 % 1007,8 hPa 0,00 l/m² 0,0 km/h (0 Bft) SW 225 ° 0 min 4 lux 0 W/m² 14,8 °C
24.06.2022 22:45 20,3 °C 29,9 °C 20,4 °C 71 % 36 % 1007,8 hPa 0,00 l/m² 6,1 km/h (2 Bft) O 85 ° 0 min 0 lux 0 W/m² 14,9 °C
24.06.2022 23:00 19,9 °C 29,8 °C 19,8 °C 71 % 37 % 1007,9 hPa 0,00 l/m² 5,7 km/h (1 Bft) O 80 ° 0 min 0 lux 0 W/m² 14,5 °C
24.06.2022 23:15 19,5 °C 29,7 °C 19,5 °C 73 % 39 % 1007,9 hPa 0,00 l/m² 0,0 km/h (0 Bft) O-NO 75 ° 0 min 0 lux 0 W/m² 14,5 °C
24.06.2022 23:30 19,3 °C 29,7 °C 19,4 °C 73 % 40 % 1007,9 hPa 0,00 l/m² 6,0 km/h (2 Bft) O-SO±22.5 110 ° 0 min 0 lux 0 W/m² 14,3 °C
24.06.2022 23:45 19,1 °C 29,6 °C 18,9 °C 74 % 42 % 1008,0 hPa 0,00 l/m² 10,3 km/h (2 Bft) O±22.5° 80 ° 0 min 0 lux 0 W/m² 14,4 °C
_ Min-Zeit 23:45 05:00 23:45 00:45 00:00 17:30 - 22:30 - - - - - 00:45
Minimum _ 19,1 °C 29,1 °C 18,9 °C 32 % 15 % 1004,1 hPa - 0,0 km/h (0 Bft) - - - - - 7,2 °C
_ Max-Zeit 09:15 18:00 08:30 23:45 23:45 00:00 00:00 00:45 - - 08:15 14:15 14:15 13:15
Maximum _ 29,3 °C 31,4 °C 29,8 °C 74 % 42 % 1008,4 hPa 0,00 l/m² 39,8 km/h
O (6 Bft)
- - 15 min 108 klux 704 W/m² 16,5 °C
Durchschnitt _ 24,5 °C 30,2 °C 25,6 °C 50 % 18 % 1006,5 hPa #0,00 l/m² 17,2 km/h (3 Bft) O-SO - #5:30 h 25,8 klux 245 W/m² 13,1 °C